Time;durP1;ratioP1;P1;durP2;ratioP2;P2;SDS_P1;SDS_P2;PMS_P1;PMS_P2;Temp;Humidity;BMP_temperature;BMP_pressure;BME280_temperature;BME280_humidity;BME280_pressure;Samples;Min_cycle;Max_cycle;Signal;HPM_P1;HPM_P2
2022/06/27 00:01:59;;;;;;;0.50;0.30;;;23.80;43.40;;;;;;6138622;28;21026;-46
2022/06/27 00:05:01;;;;;;;0.43;0.20;;;23.90;43.50;;;;;;6139150;28;20291;-43
2022/06/27 00:08:03;;;;;;;0.45;0.30;;;23.90;43.60;;;;;;6139299;28;20058;-43
2022/06/27 00:11:05;;;;;;;0.30;0.20;;;23.80;43.50;;;;;;6140327;28;20042;-46
2022/06/27 00:14:07;;;;;;;0.32;0.30;;;23.80;43.60;;;;;;6123053;28;20054;-43
2022/06/27 00:17:09;;;;;;;0.22;0.20;;;23.80;43.60;;;;;;6124148;28;20197;-45
2022/06/27 00:20:12;;;;;;;0.28;0.20;;;23.90;43.70;;;;;;6141466;28;20044;-45
2022/06/27 00:23:14;;;;;;;0.20;0.20;;;23.80;43.70;;;;;;6128586;28;20046;-47
2022/06/27 00:26:15;;;;;;;0.40;0.20;;;23.80;43.60;;;;;;6141473;28;20109;-43
2022/06/27 00:29:17;;;;;;;0.38;0.28;;;23.80;43.60;;;;;;6140961;28;20158;-44
2022/06/27 00:32:19;;;;;;;0.70;0.30;;;23.70;43.60;;;;;;6143335;28;20035;-45
2022/06/27 00:35:21;;;;;;;0.30;0.30;;;23.80;43.70;;;;;;6143668;28;20070;-45
2022/06/27 00:38:23;;;;;;;0.35;0.30;;;23.80;43.80;;;;;;6129905;28;20055;-46
2022/06/27 00:41:25;;;;;;;0.35;0.20;;;23.70;43.70;;;;;;6141860;28;20049;-45
2022/06/27 00:44:31;;;;;;;0.32;0.22;;;23.70;43.80;;;;;;6145200;28;20801;-44
2022/06/27 00:47:32;;;;;;;0.80;0.30;;;23.60;43.80;;;;;;6143929;28;20045;-47
2022/06/27 00:50:35;;;;;;;1.05;0.30;;;23.40;43.70;;;;;;6142628;28;20049;-46
2022/06/27 00:53:37;;;;;;;0.43;0.30;;;23.70;43.90;;;;;;6141915;28;20149;-45
2022/06/27 00:56:40;;;;;;;0.30;0.10;;;23.70;43.90;;;;;;6142417;28;20043;-48
2022/06/27 00:59:42;;;;;;;0.70;0.30;;;23.70;43.90;;;;;;6143262;28;20105;-45
2022/06/27 01:02:43;;;;;;;0.82;0.50;;;23.70;44.00;;;;;;6115518;28;20073;-49
2022/06/27 01:05:51;;;;;;;0.40;0.22;;;23.70;44.00;;;;;;6148084;28;20050;-47
2022/06/27 01:08:53;;;;;;;0.30;0.28;;;23.70;44.10;;;;;;6145949;28;20034;-43
2022/06/27 01:11:54;;;;;;;0.25;0.25;;;23.70;44.00;;;;;;6134105;28;20108;-45
2022/06/27 01:14:56;;;;;;;0.40;0.25;;;23.70;44.00;;;;;;6141638;28;20156;-43
2022/06/27 01:17:58;;;;;;;0.40;0.20;;;23.70;44.00;;;;;;6137856;28;20050;-44
2022/06/27 01:21:00;;;;;;;0.40;0.22;;;23.70;44.00;;;;;;6136717;28;20034;-47
2022/06/27 01:24:03;;;;;;;0.45;0.28;;;23.70;44.00;;;;;;6140443;28;20070;-45
2022/06/27 01:27:05;;;;;;;0.38;0.10;;;23.70;44.00;;;;;;6138655;28;20146;-45
2022/06/27 01:30:08;;;;;;;0.40;0.30;;;23.70;44.10;;;;;;6123090;28;20525;-45
2022/06/27 01:33:10;;;;;;;0.50;0.40;;;23.70;44.00;;;;;;6136768;28;20077;-43
2022/06/27 01:39:30;;;;;;;0.38;0.28;;;23.70;44.00;;;;;;6140918;28;20136;-44
2022/06/27 01:42:33;;;;;;;0.38;0.30;;;23.70;44.30;;;;;;6138385;28;20876;-44
2022/06/27 01:45:35;;;;;;;0.35;0.20;;;23.70;44.00;;;;;;6139461;28;20383;-42
2022/06/27 01:48:38;;;;;;;0.80;0.60;;;23.60;44.00;;;;;;6139331;28;20052;-45
2022/06/27 01:51:42;;;;;;;0.20;0.20;;;23.50;43.90;;;;;;6117377;28;20050;-44
2022/06/27 01:54:44;;;;;;;0.82;0.40;;;23.80;44.10;;;;;;6123029;28;20657;-43
2022/06/27 01:57:47;;;;;;;0.35;0.20;;;23.80;44.10;;;;;;6134693;28;20042;-44
2022/06/27 02:00:48;;;;;;;0.30;0.20;;;23.70;44.00;;;;;;6120887;28;20372;-43
2022/06/27 02:03:50;;;;;;;0.10;0.10;;;23.70;44.00;;;;;;6133576;28;20744;-45
2022/06/27 02:06:52;;;;;;;0.73;0.45;;;23.70;44.00;;;;;;6134197;28;20038;-44
2022/06/27 02:09:55;;;;;;;0.75;0.30;;;23.80;44.00;;;;;;6138864;28;20121;-43
2022/06/27 02:12:57;;;;;;;0.68;0.40;;;23.90;44.10;;;;;;6136881;28;20038;-43
2022/06/27 02:16:02;;;;;;;0.30;0.20;;;23.80;44.10;;;;;;6119385;28;20251;-48
2022/06/27 02:19:04;;;;;;;0.57;0.30;;;23.70;44.00;;;;;;6114211;28;20088;-46
2022/06/27 02:22:06;;;;;;;0.30;0.20;;;23.70;44.10;;;;;;6130292;28;21706;-45
2022/06/27 02:25:10;;;;;;;0.43;0.22;;;23.80;44.10;;;;;;6133825;28;20471;-42
2022/06/27 02:28:13;;;;;;;0.47;0.20;;;23.70;44.10;;;;;;6135477;28;20039;-45
2022/06/27 02:31:14;;;;;;;0.20;0.10;;;23.70;44.10;;;;;;6132241;28;20470;-44
2022/06/27 02:34:16;;;;;;;0.20;0.20;;;23.80;44.10;;;;;;6131196;28;20888;-44
2022/06/27 02:37:19;;;;;;;0.45;0.25;;;23.70;44.00;;;;;;6130418;28;20323;-44
2022/06/27 02:40:22;;;;;;;0.40;0.20;;;23.60;44.00;;;;;;6137712;28;20181;-44
2022/06/27 02:43:25;;;;;;;0.30;0.30;;;23.70;44.10;;;;;;6135203;28;20295;-44
2022/06/27 02:46:27;;;;;;;0.75;0.30;;;23.70;44.10;;;;;;6135289;28;20401;-45
2022/06/27 02:49:29;;;;;;;0.52;0.20;;;23.60;44.00;;;;;;6135386;28;20073;-43
2022/06/27 02:52:35;;;;;;;0.17;0.17;;;23.60;44.10;;;;;;6133508;28;20042;-44
2022/06/27 02:55:41;;;;;;;0.22;0.20;;;23.70;44.20;;;;;;6120420;28;20168;-48
2022/06/27 02:58:51;;;;;;;0.50;0.30;;;23.70;44.20;;;;;;6122949;28;20030;-45
2022/06/27 03:01:56;;;;;;;0.43;0.25;;;23.60;44.10;;;;;;6134863;28;20049;-44
2022/06/27 03:05:12;;;;;;;0.65;0.20;;;23.70;44.20;;;;;;6132545;28;20769;-45
2022/06/27 03:08:14;;;;;;;0.20;0.20;;;23.70;44.30;;;;;;6132222;28;20317;-44
2022/06/27 03:11:19;;;;;;;0.70;0.40;;;23.70;44.20;;;;;;6131928;28;20475;-48
2022/06/27 03:14:22;;;;;;;0.30;0.20;;;23.70;44.20;;;;;;6124373;28;20287;-45
2022/06/27 03:17:24;;;;;;;0.25;0.15;;;23.70;44.20;;;;;;6133773;28;20510;-42
2022/06/27 03:20:39;;;;;;;0.65;0.20;;;23.70;44.20;;;;;;6131726;28;20414;-46
2022/06/27 03:23:50;;;;;;;0.90;0.40;;;23.60;44.20;;;;;;6137192;28;20621;-44
2022/06/27 03:26:54;;;;;;;0.52;0.22;;;23.60;44.20;;;;;;6135487;28;20074;-47
2022/06/27 03:29:55;;;;;;;0.25;0.20;;;23.70;44.40;;;;;;6131091;28;20262;-44
2022/06/27 03:32:57;;;;;;;0.10;0.10;;;23.60;44.30;;;;;;6136410;28;20047;-44
2022/06/27 03:36:00;;;;;;;0.30;0.20;;;23.60;44.30;;;;;;6143774;28;20053;-44
2022/06/27 03:39:02;;;;;;;0.32;0.20;;;23.50;44.30;;;;;;6143490;28;20425;-44
2022/06/27 03:42:05;;;;;;;0.60;0.20;;;23.70;44.40;;;;;;6142651;28;20285;-46
2022/06/27 03:45:07;;;;;;;0.60;0.28;;;23.60;44.30;;;;;;6140918;28;20049;-43
2022/06/27 03:49:59;;;;;;;0.32;0.20;;;23.60;44.30;;;;;;6135895;28;20494;-45
2022/06/27 03:51:52;;;;;;;;;;;23.50;44.30;;;;;;6132101;28;20049;-44
2022/06/27 03:54:55;;;;;;;0.40;0.10;;;23.70;44.40;;;;;;6136647;28;20317;-44
2022/06/27 03:57:59;;;;;;;0.22;0.17;;;23.60;44.30;;;;;;6138456;28;20368;-44
2022/06/27 04:01:03;;;;;;;0.22;0.10;;;23.50;44.30;;;;;;6120964;28;20038;-45
2022/06/27 04:04:07;;;;;;;0.25;0.13;;;23.60;44.40;;;;;;6140483;28;20057;-43
2022/06/27 04:07:09;;;;;;;0.40;0.20;;;23.60;44.40;;;;;;6104970;28;20080;-44
2022/06/27 04:10:12;;;;;;;0.32;0.10;;;23.60;44.40;;;;;;6134643;28;20827;-43
2022/06/27 04:13:15;;;;;;;0.20;0.17;;;23.40;44.30;;;;;;6122299;28;20271;-43
2022/06/27 04:16:36;;;;;;;0.38;0.10;;;23.60;44.40;;;;;;6134039;28;20120;-44
2022/06/27 04:19:49;;;;;;;1.20;0.20;;;23.60;44.40;;;;;;6133157;28;20492;-47
2022/06/27 04:22:57;;;;;;;0.30;0.20;;;23.50;44.40;;;;;;6125151;28;20248;-46
2022/06/27 04:26:09;;;;;;;0.40;0.10;;;23.40;44.40;;;;;;6136543;28;20046;-45
2022/06/27 04:29:12;;;;;;;0.30;0.20;;;23.60;44.50;;;;;;6134178;28;20369;-46
2022/06/27 04:32:16;;;;;;;0.80;0.20;;;23.50;44.40;;;;;;6123463;28;20619;-42
2022/06/27 04:35:18;;;;;;;0.10;0.10;;;23.50;44.50;;;;;;6135235;28;20435;-46
2022/06/27 04:38:20;;;;;;;0.45;0.30;;;23.50;44.50;;;;;;6134494;28;20468;-45
2022/06/27 04:41:42;;;;;;;0.25;0.17;;;23.70;44.70;;;;;;6129348;28;20934;-44
2022/06/27 04:44:45;;;;;;;0.40;0.20;;;23.50;44.60;;;;;;6134944;28;20046;-45
2022/06/27 04:47:47;;;;;;;0.50;0.30;;;23.50;44.60;;;;;;6135070;28;20039;-45
2022/06/27 04:50:51;;;;;;;0.22;0.15;;;23.50;44.60;;;;;;6148687;28;20045;-44
2022/06/27 04:53:52;;;;;;;0.47;0.30;;;23.40;44.60;;;;;;6132509;28;20364;-44
2022/06/27 04:56:54;;;;;;;0.20;0.10;;;23.40;44.60;;;;;;6141646;28;20761;-43
2022/06/27 04:59:57;;;;;;;0.30;0.20;;;23.50;44.60;;;;;;6145017;28;20038;-46
2022/06/27 05:03:22;;;;;;;0.20;0.10;;;23.40;44.60;;;;;;6146497;28;20035;-45
2022/06/27 05:06:34;;;;;;;0.28;0.13;;;23.40;44.70;;;;;;6141839;28;20034;-46
2022/06/27 05:09:37;;;;;;;0.20;0.20;;;23.50;44.80;;;;;;6137229;28;21059;-46
2022/06/27 05:12:39;;;;;;;0.30;0.10;;;23.40;44.70;;;;;;6135169;28;20042;-49
2022/06/27 05:15:42;;;;;;;0.20;0.15;;;23.40;44.80;;;;;;6137802;28;20048;-44
2022/06/27 05:18:44;;;;;;;0.30;0.20;;;23.40;44.90;;;;;;6142687;28;20073;-50
2022/06/27 05:22:07;;;;;;;0.20;0.10;;;23.30;44.80;;;;;;6114518;28;20133;-47
2022/06/27 05:25:10;;;;;;;0.10;0.10;;;23.40;44.90;;;;;;6137228;28;20054;-47
2022/06/27 05:28:11;;;;;;;0.45;0.30;;;23.50;45.00;;;;;;6132664;28;20046;-47
2022/06/27 05:31:14;;;;;;;0.38;0.13;;;23.40;45.00;;;;;;6136607;28;20129;-44
2022/06/27 05:34:15;;;;;;;0.52;0.10;;;23.40;45.00;;;;;;6128348;28;20078;-48
2022/06/27 05:37:17;;;;;;;0.22;0.10;;;23.30;45.00;;;;;;6130735;28;20092;-44
2022/06/27 05:40:19;;;;;;;0.30;0.10;;;23.40;45.10;;;;;;6135104;28;20042;-45
2022/06/27 05:43:21;;;;;;;0.20;0.20;;;23.30;45.10;;;;;;6133584;28;20047;-45
2022/06/27 05:46:23;;;;;;;0.25;0.20;;;23.30;45.10;;;;;;6133479;28;20077;-49
2022/06/27 05:49:44;;;;;;;0.25;0.10;;;23.40;45.20;;;;;;6132296;28;20065;-47
2022/06/27 05:52:46;;;;;;;0.28;0.20;;;23.30;45.10;;;;;;6128542;28;20157;-46
2022/06/27 05:55:48;;;;;;;0.63;0.20;;;23.40;45.20;;;;;;6125529;28;20039;-44
2022/06/27 05:58:50;;;;;;;0.77;0.38;;;23.40;45.20;;;;;;6117791;28;20087;-43
2022/06/27 06:01:52;;;;;;;0.35;0.10;;;23.50;45.30;;;;;;6127557;28;20058;-46
2022/06/27 06:04:56;;;;;;;0.40;0.17;;;23.50;45.40;;;;;;6117228;28;20050;-47
2022/06/27 06:08:02;;;;;;;0.20;0.10;;;23.50;45.40;;;;;;6119721;28;20066;-47
2022/06/27 06:11:04;;;;;;;0.22;0.13;;;23.50;45.50;;;;;;6104682;28;20073;-46
2022/06/27 06:14:06;;;;;;;0.17;0.17;;;23.50;45.50;;;;;;6117019;28;20054;-45
2022/06/27 06:17:09;;;;;;;0.20;0.20;;;23.50;45.60;;;;;;6122103;28;20058;-43
2022/06/27 06:20:12;;;;;;;0.30;0.20;;;23.60;45.80;;;;;;6112085;28;20061;-47
2022/06/27 06:23:14;;;;;;;1.38;0.30;;;23.50;45.80;;;;;;6109255;28;20141;-45
2022/06/27 06:26:17;;;;;;;0.77;0.20;;;23.50;45.90;;;;;;6106646;28;20057;-47
2022/06/27 06:29:21;;;;;;;0.25;0.20;;;23.50;46.00;;;;;;6112734;28;20157;-42
2022/06/27 06:32:29;;;;;;;0.80;0.43;;;23.70;46.30;;;;;;6101529;28;20061;-43
2022/06/27 06:35:32;;;;;;;2.13;0.40;;;23.50;46.20;;;;;;6085603;28;20982;-42
2022/06/27 06:38:35;;;;;;;2.33;0.30;;;23.70;46.40;;;;;;6063003;28;20046;-45
2022/06/27 06:41:38;;;;;;;1.52;0.60;;;23.60;46.60;;;;;;6064461;28;20120;-43
2022/06/27 06:44:40;;;;;;;1.52;0.52;;;23.60;46.80;;;;;;6039693;28;20070;-45
2022/06/27 06:47:59;;;;;;;1.10;0.68;;;23.70;46.90;;;;;;6007047;28;20085;-46
2022/06/27 06:51:05;;;;;;;3.08;0.68;;;23.60;46.90;;;;;;6006730;28;20599;-44
2022/06/27 06:54:08;;;;;;;1.15;0.60;;;23.70;47.00;;;;;;5980020;28;22800;-47
2022/06/27 06:57:10;;;;;;;2.03;0.82;;;23.70;47.20;;;;;;5975229;28;20141;-49
2022/06/27 07:00:12;;;;;;;2.47;0.70;;;23.70;47.20;;;;;;5944549;28;20054;-48
2022/06/27 07:03:16;;;;;;;4.00;0.60;;;23.70;47.10;;;;;;5941321;28;20047;-45
2022/06/27 07:06:17;;;;;;;3.15;0.70;;;23.70;47.20;;;;;;5991774;28;21941;-45
2022/06/27 07:09:19;;;;;;;2.35;0.70;;;23.80;47.20;;;;;;6005447;28;20117;-45
2022/06/27 07:12:21;;;;;;;2.00;0.47;;;23.70;47.20;;;;;;5941766;28;20053;-46
2022/06/27 07:15:23;;;;;;;1.08;0.47;;;23.70;47.20;;;;;;5958545;28;20062;-46
2022/06/27 07:18:25;;;;;;;1.15;0.60;;;23.80;47.30;;;;;;5964043;28;20240;-47
2022/06/27 07:21:30;;;;;;;1.52;0.70;;;23.80;47.20;;;;;;5999382;28;20038;-52
2022/06/27 07:24:31;;;;;;;4.13;0.70;;;23.80;47.30;;;;;;5948739;28;20181;-46
2022/06/27 07:27:34;;;;;;;1.70;0.90;;;23.80;47.50;;;;;;5951248;28;22027;-48
2022/06/27 07:30:37;;;;;;;1.08;0.60;;;23.80;47.50;;;;;;5907609;28;20042;-46
2022/06/27 07:33:41;;;;;;;2.40;0.60;;;23.80;47.50;;;;;;5892253;28;20054;-46
2022/06/27 07:36:43;;;;;;;0.90;0.30;;;23.80;47.50;;;;;;5880834;28;20042;-48
2022/06/27 07:39:45;;;;;;;2.97;0.70;;;23.80;47.50;;;;;;5890010;28;20046;-44
2022/06/27 07:42:48;;;;;;;1.88;0.57;;;23.80;47.60;;;;;;5903228;28;20054;-44
2022/06/27 07:45:56;;;;;;;1.33;0.60;;;23.80;47.50;;;;;;5857426;28;20910;-45
2022/06/27 07:48:58;;;;;;;2.38;0.60;;;23.80;47.40;;;;;;5886842;28;20393;-47
2022/06/27 07:52:00;;;;;;;2.60;0.60;;;23.80;47.30;;;;;;5883476;28;20097;-47
2022/06/27 07:55:02;;;;;;;2.00;0.73;;;23.90;47.30;;;;;;5870295;28;20055;-48
2022/06/27 07:58:05;;;;;;;1.50;0.50;;;23.90;47.20;;;;;;5922903;28;20046;-48
2022/06/27 08:01:08;;;;;;;0.95;0.40;;;23.90;47.20;;;;;;5869300;28;20082;-45
2022/06/27 08:04:14;;;;;;;1.48;0.60;;;24.10;47.10;;;;;;5885612;28;20053;-46
2022/06/27 08:07:15;;;;;;;1.45;0.40;;;24.00;46.90;;;;;;5908001;28;20038;-48
2022/06/27 08:10:17;;;;;;;1.92;0.50;;;23.90;46.80;;;;;;5987990;28;20288;-47
2022/06/27 08:13:19;;;;;;;1.73;0.50;;;24.00;46.80;;;;;;5954397;28;20136;-44
2022/06/27 08:16:24;;;;;;;1.15;0.40;;;24.00;46.70;;;;;;5941936;28;20065;-44
2022/06/27 08:19:27;;;;;;;0.50;0.30;;;24.00;46.60;;;;;;5931107;28;20046;-46
2022/06/27 08:22:30;;;;;;;0.80;0.32;;;23.90;47.00;;;;;;5936829;28;20074;-43
2022/06/27 08:25:33;;;;;;;1.15;0.30;;;23.90;46.20;;;;;;5937834;28;20039;-42
2022/06/27 08:28:35;;;;;;;1.33;0.47;;;24.00;46.20;;;;;;5959727;28;20295;-44
2022/06/27 08:31:41;;;;;;;1.23;0.40;;;24.00;46.00;;;;;;5951663;28;20046;-45
2022/06/27 08:34:47;;;;;;;2.25;0.70;;;24.00;46.00;;;;;;5944740;28;20046;-46
2022/06/27 08:37:50;;;;;;;0.30;0.20;;;24.00;45.80;;;;;;5922824;28;20053;-44
2022/06/27 08:40:54;;;;;;;0.30;0.30;;;24.00;45.90;;;;;;5959433;28;21056;-47
2022/06/27 08:44:00;;;;;;;1.95;0.30;;;24.00;45.70;;;;;;5938471;28;20204;-44
2022/06/27 08:47:06;;;;;;;0.63;0.30;;;24.10;45.60;;;;;;5948796;28;20072;-46
2022/06/27 08:50:09;;;;;;;1.50;0.40;;;24.10;45.60;;;;;;5967085;28;23110;-46
2022/06/27 08:53:13;;;;;;;0.77;0.35;;;24.20;45.60;;;;;;5929917;28;21181;-44
2022/06/27 08:56:15;;;;;;;0.65;0.35;;;24.10;45.50;;;;;;5958326;28;20112;-47
2022/06/27 08:59:16;;;;;;;0.57;0.20;;;24.10;45.50;;;;;;5958427;28;20043;-45
2022/06/27 09:02:23;;;;;;;0.90;0.25;;;24.10;45.30;;;;;;5899720;28;20061;-46
2022/06/27 09:05:27;;;;;;;0.55;0.20;;;24.00;45.20;;;;;;5871387;28;20085;-42
2022/06/27 09:08:32;;;;;;;1.35;0.28;;;24.10;45.70;;;;;;5904370;28;20168;-45
2022/06/27 09:11:36;;;;;;;1.33;0.20;;;24.20;45.10;;;;;;5873534;28;20058;-44
2022/06/27 09:14:43;;;;;;;0.30;0.20;;;24.20;45.00;;;;;;5897910;28;24194;-43
2022/06/27 09:17:44;;;;;;;0.52;0.28;;;24.20;44.90;;;;;;5877870;28;20139;-43
2022/06/27 09:20:51;;;;;;;0.50;0.30;;;24.20;44.80;;;;;;5926283;28;20046;-46
2022/06/27 09:23:54;;;;;;;0.75;0.28;;;24.20;44.80;;;;;;5917120;28;20145;-46
2022/06/27 09:26:56;;;;;;;0.50;0.20;;;24.20;44.70;;;;;;5925146;28;20050;-43
2022/06/27 09:29:58;;;;;;;0.70;0.25;;;24.30;44.70;;;;;;5901441;28;20046;-45
2022/06/27 09:33:01;;;;;;;0.95;0.30;;;24.30;44.50;;;;;;5912892;28;20042;-44
2022/06/27 09:36:09;;;;;;;0.63;0.20;;;24.30;44.40;;;;;;5901044;28;22220;-44
2022/06/27 09:39:21;;;;;;;1.75;0.22;;;24.30;44.20;;;;;;5937405;28;20125;-46
2022/06/27 09:42:24;;;;;;;0.52;0.20;;;24.30;44.00;;;;;;5936297;28;20042;-44
2022/06/27 09:45:27;;;;;;;0.90;0.20;;;24.30;44.00;;;;;;5929844;28;20050;-47
2022/06/27 09:48:30;;;;;;;0.77;0.22;;;24.30;43.90;;;;;;5908142;28;20052;-43
2022/06/27 09:51:34;;;;;;;0.55;0.20;;;24.20;43.70;;;;;;5940313;28;20133;-46
2022/06/27 09:54:38;;;;;;;0.55;0.22;;;24.30;43.60;;;;;;5909327;28;20046;-44
2022/06/27 09:57:41;;;;;;;0.88;0.20;;;24.30;43.50;;;;;;5939610;28;20050;-45
2022/06/27 10:00:44;;;;;;;0.50;0.10;;;24.30;43.40;;;;;;5957098;28;20173;-47
2022/06/27 10:03:46;;;;;;;0.77;0.35;;;24.40;43.40;;;;;;5957967;28;20076;-44
2022/06/27 10:06:49;;;;;;;0.50;0.20;;;24.40;43.20;;;;;;5952004;28;20097;-43
2022/06/27 10:09:52;;;;;;;0.60;0.20;;;24.40;43.20;;;;;;5957860;28;20039;-46
2022/06/27 10:12:58;;;;;;;1.30;0.32;;;24.30;43.00;;;;;;5957969;28;20149;-43
2022/06/27 10:16:06;;;;;;;0.50;0.20;;;24.50;42.90;;;;;;5938587;28;20042;-48
2022/06/27 10:19:14;;;;;;;1.70;0.30;;;24.50;42.70;;;;;;5928464;28;20185;-44
2022/06/27 10:22:26;;;;;;;0.47;0.20;;;24.40;42.60;;;;;;5950690;28;20046;-51
2022/06/27 10:25:35;;;;;;;2.05;0.20;;;24.70;42.60;;;;;;5973653;28;20237;-48
2022/06/27 10:32:05;;;;;;;0.95;0.10;;;24.50;42.30;;;;;;5969005;28;20042;-46
2022/06/27 10:35:12;;;;;;;0.68;0.20;;;24.50;42.10;;;;;;5940064;28;20045;-47
2022/06/27 10:38:23;;;;;;;0.10;0.10;;;24.60;42.00;;;;;;5940533;28;20131;-48
2022/06/27 10:41:40;;;;;;;0.47;0.20;;;24.40;41.70;;;;;;5938850;28;20176;-46
2022/06/27 10:44:43;;;;;;;0.70;0.13;;;24.50;41.70;;;;;;5950476;28;21742;-50
2022/06/27 10:47:44;;;;;;;0.38;0.10;;;24.50;41.60;;;;;;5981844;28;20049;-46
2022/06/27 10:50:46;;;;;;;0.40;0.22;;;24.50;41.50;;;;;;5975831;28;20054;-49
2022/06/27 10:53:50;;;;;;;1.20;0.20;;;24.40;41.40;;;;;;5973709;28;20058;-47
2022/06/27 10:56:55;;;;;;;0.25;0.10;;;24.40;41.40;;;;;;5936507;28;21550;-46
2022/06/27 10:59:59;;;;;;;0.90;0.20;;;24.50;41.50;;;;;;5979876;28;20169;-49
2022/06/27 11:03:01;;;;;;;1.25;0.40;;;24.50;41.60;;;;;;6025513;28;20038;-48
2022/06/27 11:06:04;;;;;;;0.43;0.20;;;24.50;41.70;;;;;;6005769;28;20124;-48
2022/06/27 11:09:06;;;;;;;0.40;0.20;;;24.40;41.60;;;;;;6010466;28;20035;-46
2022/06/27 11:12:10;;;;;;;0.50;0.30;;;24.40;41.70;;;;;;6011552;28;20054;-49
2022/06/27 11:15:11;;;;;;;0.63;0.32;;;24.50;41.80;;;;;;5976109;28;21153;-49
2022/06/27 11:18:13;;;;;;;0.93;0.30;;;24.50;41.80;;;;;;6017259;28;20204;-46
2022/06/27 11:21:16;;;;;;;0.68;0.25;;;24.40;42.40;;;;;;5979235;28;21136;-47
2022/06/27 11:24:18;;;;;;;0.55;0.30;;;24.50;41.90;;;;;;6003007;28;20157;-47
2022/06/27 11:27:23;;;;;;;1.50;0.30;;;24.40;41.90;;;;;;6000166;28;20057;-43
2022/06/27 11:33:47;;;;;;;0.20;0.10;;;24.40;42.10;;;;;;5971874;28;20039;-48
2022/06/27 11:36:48;;;;;;;0.70;0.15;;;24.40;42.20;;;;;;5976736;28;20050;-45
2022/06/27 11:39:59;;;;;;;0.90;0.30;;;24.40;42.40;;;;;;5969788;28;20069;-48
2022/06/27 11:43:02;;;;;;;0.37;0.20;;;24.30;42.60;;;;;;5961507;28;20092;-43
2022/06/27 11:46:04;;;;;;;0.20;0.10;;;24.40;42.70;;;;;;5951584;28;20285;-46
2022/06/27 11:49:07;;;;;;;0.43;0.20;;;24.40;43.00;;;;;;5965858;28;20176;-49
2022/06/27 11:52:11;;;;;;;0.40;0.20;;;24.40;43.20;;;;;;5941327;28;20060;-44
2022/06/27 11:55:15;;;;;;;0.45;0.20;;;24.40;43.20;;;;;;5924697;28;20034;-50
2022/06/27 11:58:17;;;;;;;0.60;0.20;;;24.50;43.30;;;;;;5903174;28;20046;-48
2022/06/27 12:01:19;;;;;;;1.02;0.38;;;24.50;43.20;;;;;;5905988;28;20043;-46
2022/06/27 12:04:26;;;;;;;0.50;0.20;;;24.50;43.10;;;;;;5836690;28;21323;-46
2022/06/27 12:07:28;;;;;;;0.25;0.17;;;24.40;43.00;;;;;;5880794;28;20149;-47
2022/06/27 12:10:40;;;;;;;0.35;0.20;;;24.40;42.90;;;;;;5865769;28;20172;-48
2022/06/27 12:13:42;;;;;;;0.13;0.10;;;24.00;42.70;;;;;;5833969;28;20042;-46
2022/06/27 12:16:45;;;;;;;0.65;0.25;;;24.40;42.80;;;;;;5867567;28;22451;-48
2022/06/27 12:19:58;;;;;;;0.28;0.20;;;24.50;42.80;;;;;;5881947;28;20061;-49
2022/06/27 12:23:00;;;;;;;0.68;0.20;;;24.50;42.80;;;;;;5874485;28;20219;-50
2022/06/27 12:26:04;;;;;;;0.52;0.10;;;24.50;42.80;;;;;;5884311;28;20089;-50
2022/06/27 12:29:06;;;;;;;1.13;0.20;;;24.40;42.70;;;;;;5872267;28;20049;-49
2022/06/27 12:32:09;;;;;;;0.47;0.20;;;24.40;42.60;;;;;;5868522;28;20126;-46
2022/06/27 12:35:11;;;;;;;0.13;0.10;;;24.50;42.70;;;;;;5828255;28;20053;-45
2022/06/27 12:38:16;;;;;;;0.35;0.10;;;24.50;42.70;;;;;;5809454;28;20042;-48
2022/06/27 12:41:18;;;;;;;0.45;0.30;;;24.50;42.70;;;;;;5877063;28;20093;-46
2022/06/27 12:44:19;;;;;;;0.20;0.10;;;24.50;42.80;;;;;;5897444;28;23229;-57
2022/06/27 12:47:21;;;;;;;0.20;0.15;;;24.50;42.80;;;;;;5896036;28;20563;-47
2022/06/27 12:50:23;;;;;;;1.58;0.30;;;24.40;43.20;;;;;;5883291;28;20148;-46
2022/06/27 12:53:26;;;;;;;0.20;0.20;;;24.30;42.60;;;;;;5844166;28;20057;-46
2022/06/27 12:56:28;;;;;;;0.30;0.13;;;24.50;42.80;;;;;;5838701;28;20046;-48
2022/06/27 12:59:30;;;;;;;0.40;0.25;;;24.20;42.60;;;;;;5872400;28;20043;-47
2022/06/27 13:02:32;;;;;;;0.60;0.10;;;24.30;42.80;;;;;;5840151;28;20177;-46
2022/06/27 13:05:33;;;;;;;0.35;0.20;;;24.50;43.00;;;;;;5878374;28;20209;-49
2022/06/27 13:08:35;;;;;;;0.52;0.20;;;24.50;43.20;;;;;;5891014;28;20042;-52
2022/06/27 13:11:38;;;;;;;0.30;0.20;;;24.50;43.40;;;;;;5873791;28;20054;-49
2022/06/27 13:14:40;;;;;;;0.20;0.20;;;24.50;43.40;;;;;;5907098;28;20050;-51
2022/06/27 13:17:42;;;;;;;0.22;0.10;;;24.50;43.50;;;;;;5905879;28;21284;-48
2022/06/27 13:20:44;;;;;;;0.77;0.20;;;24.50;43.50;;;;;;5872065;28;20165;-51
2022/06/27 13:23:54;;;;;;;0.20;0.10;;;24.50;43.60;;;;;;5888587;28;21459;-45
2022/06/27 13:27:15;;;;;;;0.20;0.10;;;24.50;43.50;;;;;;5884617;28;20046;-47
2022/06/27 13:30:17;;;;;;;0.32;0.10;;;24.50;43.40;;;;;;5887634;28;22888;-42
2022/06/27 13:33:19;;;;;;;0.60;0.10;;;24.50;43.40;;;;;;5851870;28;28954;-43
2022/06/27 13:36:20;;;;;;;0.85;0.10;;;24.50;43.40;;;;;;5859087;28;26334;-41
2022/06/27 13:39:24;;;;;;;0.50;0.30;;;24.40;43.60;;;;;;5845930;28;20177;-46
2022/06/27 13:42:26;;;;;;;0.60;0.10;;;24.50;43.60;;;;;;5888024;28;27401;-44
2022/06/27 13:45:29;;;;;;;1.40;0.20;;;24.50;43.80;;;;;;5886486;28;21521;-42
2022/06/27 13:48:31;;;;;;;0.75;0.10;;;24.50;43.60;;;;;;5883478;28;20046;-43
2022/06/27 13:51:32;;;;;;;0.50;0.10;;;24.50;43.60;;;;;;5882025;28;25962;-47
2022/06/27 13:54:34;;;;;;;0.40;0.20;;;24.50;43.60;;;;;;5847754;28;20046;-43
2022/06/27 13:57:36;;;;;;;0.30;0.10;;;24.40;43.60;;;;;;5846903;28;20136;-47
2022/06/27 14:00:58;;;;;;;1.23;0.20;;;24.50;43.60;;;;;;5830975;28;25005;-44
2022/06/27 14:04:00;;;;;;;0.40;0.10;;;24.40;43.60;;;;;;5838744;28;20966;-45
2022/06/27 14:10:21;;;;;;;0.28;0.20;;;23.70;43.30;;;;;;5852780;28;20042;-43
2022/06/27 14:13:24;;;;;;;1.00;0.10;;;24.50;43.70;;;;;;5807111;28;20045;-42
2022/06/27 14:16:27;;;;;;;0.90;0.20;;;24.50;43.80;;;;;;5853286;28;21120;-43
2022/06/27 14:19:29;;;;;;;0.15;0.10;;;24.50;44.20;;;;;;5872855;28;20497;-42
2022/06/27 14:22:31;;;;;;;0.40;0.10;;;24.60;44.70;;;;;;5881769;28;20160;-43
2022/06/27 14:25:32;;;;;;;0.10;0.10;;;24.50;45.10;;;;;;5858229;28;20042;-43
2022/06/27 14:28:35;;;;;;;0.45;0.20;;;24.50;45.50;;;;;;5895886;28;20042;-44
2022/06/27 14:31:36;;;;;;;1.27;0.15;;;24.80;46.00;;;;;;5882306;28;20195;-43
2022/06/27 14:34:38;;;;;;;0.20;0.10;;;24.50;46.00;;;;;;5894754;28;20164;-44
2022/06/27 14:37:40;;;;;;;0.38;0.28;;;24.50;46.20;;;;;;5883954;28;20050;-48
2022/06/27 14:40:41;;;;;;;0.10;0.10;;;24.50;46.20;;;;;;5881368;28;20038;-46
2022/06/27 14:43:44;;;;;;;0.10;0.10;;;24.50;46.40;;;;;;5893428;28;20861;-44
2022/06/27 14:46:46;;;;;;;0.22;0.10;;;24.50;46.30;;;;;;5905796;28;20965;-50
2022/06/27 14:49:49;;;;;;;0.38;0.20;;;24.50;46.20;;;;;;5887538;28;21148;-44
2022/06/27 14:52:50;;;;;;;2.83;0.20;;;24.50;46.00;;;;;;5928372;28;20046;-41
2022/06/27 14:55:52;;;;;;;0.73;0.13;;;24.50;45.80;;;;;;5909520;28;20058;-43
2022/06/27 14:58:55;;;;;;;0.10;0.10;;;24.50;45.60;;;;;;5917094;28;20050;-45
2022/06/27 15:01:57;;;;;;;0.30;0.17;;;24.50;45.40;;;;;;5901822;28;21121;-42
2022/06/27 15:04:59;;;;;;;0.25;0.10;;;24.50;45.20;;;;;;5910719;28;20141;-44
2022/06/27 15:08:00;;;;;;;1.05;0.10;;;24.40;45.00;;;;;;5944269;28;20054;-43
2022/06/27 15:14:19;;;;;;;0.20;0.10;;;24.50;44.60;;;;;;5934397;28;20430;-44
2022/06/27 15:17:21;;;;;;;0.10;0.05;;;24.50;44.30;;;;;;5925644;28;21430;-44
2022/06/27 15:20:33;;;;;;;0.17;0.10;;;24.50;44.10;;;;;;5940563;28;20066;-42
2022/06/27 15:23:35;;;;;;;0.20;0.10;;;24.50;43.90;;;;;;5942508;28;20053;-42
2022/06/27 15:26:37;;;;;;;0.40;0.10;;;24.40;43.70;;;;;;5906264;28;32579;-43
2022/06/27 15:29:39;;;;;;;0.85;0.20;;;24.50;43.60;;;;;;5952518;28;27806;-47
2022/06/27 15:32:46;;;;;;;0.05;0.00;;;24.50;43.50;;;;;;5932357;28;21716;-44
2022/06/27 15:35:47;;;;;;;0.10;0.00;;;24.50;43.40;;;;;;5953982;28;24415;-43
2022/06/27 15:38:49;;;;;;;0.30;0.20;;;24.50;43.40;;;;;;5961358;28;20054;-46
2022/06/27 15:41:51;;;;;;;0.00;0.00;;;24.50;43.30;;;;;;5970271;28;20164;-46
2022/06/27 15:44:56;;;;;;;0.05;0.00;;;24.90;43.50;;;;;;5993683;28;23868;-46
2022/06/27 15:48:01;;;;;;;0.10;0.00;;;24.50;43.10;;;;;;5996838;28;20052;-44
2022/06/27 15:51:08;;;;;;;0.10;0.10;;;24.50;43.00;;;;;;6000774;28;20043;-44
2022/06/27 15:54:09;;;;;;;0.57;0.20;;;24.50;43.00;;;;;;5985195;28;21407;-43
2022/06/27 15:57:11;;;;;;;0.70;0.20;;;24.50;42.80;;;;;;5963100;28;21379;-43
2022/06/27 16:00:15;;;;;;;0.43;0.20;;;24.60;42.80;;;;;;5993181;28;32495;-42
2022/06/27 16:03:24;;;;;;;0.10;0.10;;;24.60;42.80;;;;;;5960468;28;20053;-48
2022/06/27 16:06:26;;;;;;;0.10;0.00;;;24.60;42.80;;;;;;5903032;28;20053;-43
2022/06/27 16:09:27;;;;;;;0.10;0.10;;;24.50;42.80;;;;;;5985299;28;21854;-44
2022/06/27 16:12:29;;;;;;;0.30;0.10;;;24.60;42.70;;;;;;6030507;28;21256;-45
2022/06/27 16:15:31;;;;;;;0.10;0.10;;;24.50;42.70;;;;;;6036685;28;20177;-47